My Meet Scores
Rilyn O'Hern, Aspire Gymnastics Academy - MyMeetScores.com
Top100 | Top Teams | Upcoming Meets | Completed Meets | Latest | Add Scores | Help| Support | Bookmark and Share

Rilyn O'Hern, Aspire Gymnastics Academy
Personal Bests
LevelVault BarsBeamFloorAA
39.6259.650 9.6009.85038.400
49.0009.275 9.8009.37536.450
59.4759.250 9.4009.52537.500
Scores on America's Top 100as of 11.21.2019
Year Level Vault Bars Beam Floor AA
2017 39.850

Click here to view our
exclusive Top 100 Collection
Meet Scores
Date Meet Team Session Level Division Vault Bars Beam Floor AA
2019-03-22 Illinois Gymnastics State Championships Aspire Gymnastics Academy 2 5 JR C 9.475 7T 9.250 9 9.250 3T 9.525 2T 37.500 4
2019-03-08 Lucky Invite Aspire Gymnastics Academy A07 5 Jr A 9.000 5T 9.225 5 9.400 3T 9.225 3T 36.850 3
2019-02-23 Kinetic Classic 2019 Aspire Gymnastics Academy 1 5 Younger 8.700 6 8.950 10 9.250 10T 9.050 5 35.950 7
2019-02-15 Big ClassicBIG CLASSIC Aspire Gymnastics Academy 5B 5 Child A 9.300 4T 9.225 4 9.350 5T 8.700 6T 36.575 4
2019-01-25 UGA Invitational Aspire Gymnastics Academy B11 5 Jr A 9.400 2 8.900 8 8.925 9 9.100 7T 36.325 8
2019-01-18 2019 Bravo Classic Aspire Gymnastics Academy 2A 5 Child 8.875 11T 8.875 15 9.250 8T 8.900 20T 35.900 15
2018-12-14 2018 Aspire Classic Aspire Gymnastics Academy 8A 5 Younger 9.400 4T 9.000 11T 9.225 10T 8.850 11 36.475 7
2018-12-07 St. Nick Invite 2018 Aspire Gymnastics Academy 1 5 JrA 9.250 4 9.225 1 9.025 9T 8.950 6 36.450 3
2018-11-17 Paul Hamm Thanksgiving Class WOMENS Aspire Gymnastics Academy 5 5 Younger 9.250 4 9.100 5 8.850 12T 9.300 5 36.500 5
2018-03-08 Level 4 & 5 State Aspire Gymnastics Academy All 4 Ch E 8.825 12T 9.275 4 8.875 19 9.000 10T 35.975 9
2018-02-16 Big Classic Aspire Gymnastics Academy 2B 4 Child A 8.575 7 8.950 8T 9.400 2 9.325 2 36.250 4
2018-01-26 2018 UGA Classic Aspire Gymnastics Academy AA1 4 Jr A 9.000 3T 8.600 9 9.800 2T 9.050 7T 36.450 5
2018-01-19 2018 Bravo Classic Aspire Gymnastics Academy 12B 4 Child 8.850 3T 8.500 15T 8.750 17 9.375 6 35.475 10
2017-12-15 2017 Aspire Classic Aspire Gymnastics Academy 3 4 Jr A 8.900 5 8.450 18 8.975 13T 8.775 10T 35.100 10
2017-12-08 St. Nick Invite Aspire Gymnastics Academy 7A 4 JrA 8.700 16 9.050 9T 9.225 8 9.200 6 36.175 8
2017-11-16 Paul Hamm Thanksgiving Classic - Women Aspire Gymnastics Academy 7 4 Younger 8.750 9 9.100 16 8.825 19 9.150 6 35.825 11
2017-03-30 2017 Illinois Level 3 & 5 State Aspire Gymnastics Academy All 3 Ch F 9.625 5 9.600 1* 9.425 4 9.625 1T 38.275 2T
2017-02-24 Kinetic Classic Aspire Gymnastics Academy 4,5,6,7 3 All Ages 9.200 36T 9.350 14 9.350 14T 9.850 1 37.750 3T
2017-02-18 2017 Great Western Invitational Women's Aspire Gymnastics Academy 2 3 Filly 9.375 3 9.600 4 9.100 7T 9.725 1 37.800 3T
2017-01-27 2017 UGA Invitational Aspire Gymnastics Academy B7 3 Jr B 9.050 5T 9.400 2 9.400 4 9.600 1 37.450 3
2017-01-20 2017 Bravo Classic Aspire Gymnastics Academy 10B 3 6-7yrs 9.550 2 9.650 3 9.575 2 9.625 1 38.400 2
2016-12-16 2016 Aspire Classic Aspire Gymnastics Academy 11 3 Younger 9.400 7 9.200 7 9.100 3 9.550 1 37.250 3
2016-12-09 St. Nick Invite Aspire Gymnastics Academy 5 3 All 9.275 34T 9.500 7T 9.600 7T 9.625 3 38.000 6
2016-11-19 Paul Hamm Thanksgiving Classic - 2016 Girls Aspire Gymnastics Academy 6 3 8-9 yrs 9.000 18T 9.425 5 9.175 5 9.450 5 37.050 6
2016-03-04 2016 Illinois Level 3 State Championships Aspire Gymnastics Academy 3 Child-A 9.125 16 8.575 16 8.200 18 9.150 6 35.050 11
2016-02-13 Western Invite Aspire Gymnastics Academy 1 3 Filly 8.950 11T 8.650 15 8.600 9T 9.100 4T 35.300 7
2016-01-15 2016 Bravo Classic Aspire Gymnastics Academy 15A 3 6-7yrs 8.925 19 9.050 10 8.500 17 8.900 9 35.375 13T
2015-12-18 2015 Aspire Classic Aspire Gymnastics Academy 9 3 Younger 9.100 11 8.150 13T 9.075 3T 9.000 4T 35.325 6
2015-12-11 St. Nick Invite Aspire Gymnastics Academy 1B 3 All 8.900 43T 7.850 49 8.500 32 8.100 46 33.350 47
Get your scores on
a t-shirt, pin, or hoodie

www.lazysuits.com